createdAt,value
2022-09-20T00:00:48.260Z,96.74
2022-09-20T00:01:49.672Z,96.36
2022-09-20T00:02:51.004Z,96.45
2022-09-20T00:03:56.650Z,96.61
2022-09-20T00:04:58.290Z,94.90
2022-09-20T00:06:03.284Z,94.95
2022-09-20T00:07:04.630Z,95.14
2022-09-20T00:08:06.648Z,95.02
2022-09-20T00:09:07.991Z,94.92
2022-09-20T00:10:09.383Z,94.96
2022-09-20T00:11:15.633Z,94.46
2022-09-20T00:12:16.933Z,95.02
2022-09-20T00:13:18.284Z,95.26
2022-09-20T00:14:19.615Z,95.01
2022-09-20T00:15:20.996Z,94.28
2022-09-20T00:16:24.348Z,94.78
2022-09-20T00:17:25.717Z,94.95
2022-09-20T00:18:27.039Z,94.79
2022-09-20T00:19:28.362Z,94.95
2022-09-20T00:20:30.185Z,95.00
2022-09-20T00:21:32.901Z,95.21
2022-09-20T00:22:34.213Z,95.23
2022-09-20T00:23:35.512Z,95.32
2022-09-20T00:24:36.849Z,95.33
2022-09-20T00:25:38.188Z,95.53
2022-09-20T00:26:39.604Z,95.53
2022-09-20T00:27:41.222Z,95.03
2022-09-20T00:28:42.569Z,95.34
2022-09-20T00:29:43.893Z,95.00
2022-09-20T00:30:45.217Z,95.02
2022-09-20T00:31:46.571Z,94.81
2022-09-20T00:32:47.884Z,94.73
2022-09-20T00:33:49.381Z,95.33
2022-09-20T00:34:50.749Z,95.32
2022-09-20T00:35:52.056Z,95.58
2022-09-20T00:36:53.400Z,95.40
2022-09-20T00:37:54.747Z,95.63
2022-09-20T00:38:56.466Z,95.56
2022-09-20T00:39:57.874Z,96.05
2022-09-20T00:40:59.243Z,95.90
2022-09-20T00:42:00.582Z,95.23
2022-09-20T00:43:01.937Z,95.03
2022-09-20T00:44:23.205Z,95.40
2022-09-20T00:45:28.391Z,95.47
2022-09-20T00:46:37.808Z,95.85
2022-09-20T00:47:43.672Z,95.88
2022-09-20T00:48:45.161Z,95.84
2022-09-20T00:49:46.550Z,95.32
2022-09-20T00:51:09.400Z,95.19
2022-09-20T00:52:10.898Z,95.37
2022-09-20T00:53:18.248Z,95.34
2022-09-20T00:54:21.685Z,94.89
2022-09-20T00:55:23.550Z,94.93
2022-09-20T00:56:27.453Z,95.13
2022-09-20T00:57:29.407Z,95.97
2022-09-20T00:58:32.944Z,95.78
2022-09-20T00:59:37.006Z,95.38
2022-09-20T01:00:38.981Z,95.49
2022-09-20T01:01:41.269Z,95.72
2022-09-20T01:02:48.022Z,95.74
2022-09-20T01:03:49.513Z,95.92
2022-09-20T01:04:51.082Z,95.98
2022-09-20T01:05:53.333Z,95.80
2022-09-20T01:06:57.687Z,95.72
2022-09-20T01:07:59.071Z,95.66
2022-09-20T01:09:02.145Z,95.97
2022-09-20T01:10:03.512Z,96.65
2022-09-20T01:11:05.099Z,96.10
2022-09-20T01:12:07.757Z,96.05
2022-09-20T01:13:09.114Z,95.71
2022-09-20T01:14:13.024Z,96.05
2022-09-20T01:15:14.617Z,95.65
2022-09-20T01:16:16.812Z,95.50
2022-09-20T01:17:19.417Z,95.92
2022-09-20T01:18:22.076Z,95.81
2022-09-20T01:19:26.318Z,94.53
2022-09-20T01:20:36.252Z,94.72
2022-09-20T01:21:37.725Z,95.02
2022-09-20T01:22:39.001Z,95.16
2022-09-20T01:23:42.936Z,95.91
2022-09-20T01:24:47.248Z,95.71
2022-09-20T01:26:07.345Z,95.67
2022-09-20T01:27:08.641Z,95.62
2022-09-20T01:28:09.937Z,95.18
2022-09-20T01:29:18.325Z,95.37
2022-09-20T01:30:21.078Z,95.42
2022-09-20T01:31:22.415Z,95.66
2022-09-20T01:32:25.468Z,94.74
2022-09-20T01:33:44.960Z,94.60
2022-09-20T01:34:48.206Z,95.20
2022-09-20T01:35:51.260Z,95.09
2022-09-20T01:37:10.798Z,94.72
2022-09-20T01:38:30.528Z,94.35
2022-09-20T01:39:44.150Z,94.46
2022-09-20T01:41:06.809Z,94.48
2022-09-20T01:42:09.769Z,94.88
2022-09-20T01:43:18.275Z,95.56
2022-09-20T01:44:22.231Z,95.32
2022-09-20T01:45:27.223Z,95.22
2022-09-20T01:46:29.762Z,95.85
2022-09-20T01:47:35.520Z,95.35
2022-09-20T01:48:40.237Z,94.46
2022-09-20T01:50:04.593Z,94.60
2022-09-20T01:51:05.891Z,94.95
2022-09-20T01:52:12.942Z,95.47
2022-09-20T01:53:32.640Z,95.29
2022-09-20T01:54:46.197Z,95.03
2022-09-20T01:56:06.116Z,94.90
2022-09-20T01:57:13.368Z,94.31
2022-09-20T01:58:20.757Z,94.16
2022-09-20T01:59:40.202Z,93.91
2022-09-20T02:01:00.264Z,93.84
2022-09-20T02:02:01.662Z,94.19
2022-09-20T02:03:26.034Z,94.73
2022-09-20T02:04:33.517Z,94.82
2022-09-20T02:05:57.978Z,94.80
2022-09-20T02:07:17.472Z,94.96
2022-09-20T02:08:34.241Z,95.31
2022-09-20T02:09:38.624Z,95.51
2022-09-20T02:10:58.285Z,95.24
2022-09-20T02:12:05.836Z,95.11
2022-09-20T02:13:10.958Z,94.38
2022-09-20T02:14:30.841Z,93.83
2022-09-20T02:15:41.082Z,93.71
2022-09-20T02:16:50.372Z,93.70
2022-09-20T02:18:30.340Z,93.40
2022-09-20T02:19:53.628Z,93.73
2022-09-20T02:21:03.436Z,93.27
2022-09-20T02:22:16.296Z,93.09
2022-09-20T02:23:36.096Z,93.36
2022-09-20T02:24:37.373Z,94.08
2022-09-20T02:25:38.667Z,94.63
2022-09-20T02:26:50.699Z,93.64
2022-09-20T02:28:21.228Z,93.02
2022-09-20T02:29:40.833Z,92.50
2022-09-20T02:31:00.341Z,92.97
2022-09-20T02:32:16.989Z,92.69
2022-09-20T02:33:36.997Z,91.49
2022-09-20T02:34:44.241Z,91.31
2022-09-20T02:35:45.571Z,90.85
2022-09-20T02:37:06.437Z,91.37
2022-09-20T02:38:16.205Z,91.56
2022-09-20T02:39:22.077Z,90.71
2022-09-20T02:40:29.588Z,90.72
2022-09-20T02:41:30.993Z,90.71
2022-09-20T02:42:41.093Z,90.78
2022-09-20T02:43:53.963Z,90.68
2022-09-20T02:45:01.022Z,91.03
2022-09-20T02:46:21.611Z,91.21
2022-09-20T02:47:23.018Z,91.17
2022-09-20T02:48:28.765Z,91.07
2022-09-20T02:49:30.064Z,90.95
2022-09-20T02:50:37.150Z,90.43
2022-09-20T02:51:44.629Z,91.29
2022-09-20T02:52:48.877Z,91.21
2022-09-20T02:54:02.455Z,91.41
2022-09-20T02:55:19.154Z,91.87
2022-09-20T02:56:33.899Z,92.09
2022-09-20T02:57:59.742Z,92.58
2022-09-20T02:59:01.028Z,92.75
2022-09-20T03:00:04.879Z,93.06
2022-09-20T03:01:09.274Z,93.09
2022-09-20T03:02:26.503Z,93.62
2022-09-20T03:03:43.233Z,93.81
2022-09-20T03:05:01.230Z,93.47
2022-09-20T03:06:25.612Z,93.07
2022-09-20T03:07:33.824Z,92.68
2022-09-20T03:08:35.164Z,92.84
2022-09-20T03:09:45.345Z,93.08
2022-09-20T03:10:52.788Z,93.16
2022-09-20T03:12:02.401Z,92.87
2022-09-20T03:13:15.857Z,92.48
2022-09-20T03:14:19.822Z,92.63
2022-09-20T03:15:40.127Z,93.06
2022-09-20T03:16:52.438Z,93.25
2022-09-20T03:18:00.150Z,93.20
2022-09-20T03:19:20.362Z,93.90
2022-09-20T03:20:36.252Z,94.21
2022-09-20T03:21:37.924Z,93.72
2022-09-20T03:22:48.770Z,93.26
2022-09-20T03:23:56.997Z,93.41
2022-09-20T03:25:16.682Z,93.70
2022-09-20T03:26:34.450Z,93.63
2022-09-20T03:27:38.531Z,93.72
2022-09-20T03:28:48.993Z,93.88
2022-09-20T03:30:09.329Z,93.66
2022-09-20T03:31:29.288Z,93.81
2022-09-20T03:32:45.733Z,93.06
2022-09-20T03:34:07.326Z,93.17
2022-09-20T03:35:14.281Z,92.93
2022-09-20T03:36:24.422Z,93.24
2022-09-20T03:37:41.031Z,93.01
2022-09-20T03:38:48.513Z,92.78
2022-09-20T03:40:08.780Z,93.36
2022-09-20T03:41:10.167Z,93.12
2022-09-20T03:42:17.570Z,93.43
2022-09-20T03:43:57.324Z,92.71
2022-09-20T03:45:07.916Z,92.74
2022-09-20T03:46:09.306Z,92.54
2022-09-20T03:47:16.685Z,92.47
2022-09-20T03:48:39.505Z,92.57
2022-09-20T03:49:40.799Z,92.48
2022-09-20T03:50:42.141Z,92.60
2022-09-20T03:51:46.147Z,92.43
2022-09-20T03:52:53.505Z,92.63
2022-09-20T03:54:21.349Z,92.88
2022-09-20T03:55:37.593Z,92.89
2022-09-20T03:56:59.163Z,92.63
2022-09-20T03:58:08.832Z,92.08
2022-09-20T03:59:13.115Z,92.29
2022-09-20T04:00:42.179Z,92.73
2022-09-20T04:02:01.694Z,92.61
2022-09-20T04:03:18.234Z,93.23
2022-09-20T04:04:30.193Z,93.64
2022-09-20T04:05:45.369Z,93.96
2022-09-20T04:06:55.588Z,94.59
2022-09-20T04:07:59.873Z,94.95
2022-09-20T04:09:20.028Z,94.77
2022-09-20T04:10:24.095Z,94.17
2022-09-20T04:11:27.875Z,94.52
2022-09-20T04:12:47.679Z,94.68
2022-09-20T04:14:06.871Z,94.65
2022-09-20T04:15:32.126Z,94.79
2022-09-20T04:16:43.074Z,95.50
2022-09-20T04:17:47.559Z,95.33
2022-09-20T04:18:55.825Z,94.61
2022-09-20T04:20:17.902Z,95.53
2022-09-20T04:21:21.958Z,96.76
2022-09-20T04:22:24.534Z,96.64
2022-09-20T04:23:36.130Z,96.56
2022-09-20T04:24:56.381Z,96.79
2022-09-20T04:25:59.026Z,96.08
2022-09-20T04:27:02.658Z,96.59
2022-09-20T04:28:12.829Z,96.74
2022-09-20T04:29:20.041Z,97.72
2022-09-20T04:30:21.359Z,97.77
2022-09-20T04:31:41.718Z,97.52
2022-09-20T04:32:47.142Z,96.32
2022-09-20T04:33:50.241Z,96.62
2022-09-20T04:34:57.945Z,97.00
2022-09-20T04:36:18.158Z,97.95
2022-09-20T04:37:30.130Z,97.75
2022-09-20T04:38:31.802Z,97.77
2022-09-20T04:39:38.993Z,98.00
2022-09-20T04:40:56.104Z,97.37
2022-09-20T04:42:12.768Z,98.02
2022-09-20T04:43:37.419Z,99.37
2022-09-20T04:44:38.730Z,99.45
2022-09-20T04:45:43.191Z,98.50
2022-09-20T04:46:44.639Z,98.76
2022-09-20T04:47:48.839Z,98.79
2022-09-20T04:49:09.068Z,98.88
2022-09-20T04:50:19.306Z,99.46
2022-09-20T04:51:39.487Z,99.37
2022-09-20T04:53:07.245Z,100.00
2022-09-20T04:54:44.321Z,99.52
2022-09-20T04:55:49.617Z,98.32
2022-09-20T04:57:09.755Z,99.15
2022-09-20T04:58:23.095Z,99.31
2022-09-20T04:59:44.692Z,99.66
2022-09-20T05:01:04.940Z,99.82
2022-09-20T05:02:21.588Z,99.84
2022-09-20T05:03:41.703Z,99.92
2022-09-20T05:05:06.106Z,99.45
2022-09-20T05:06:25.776Z,99.37
2022-09-20T05:07:29.909Z,99.67
2022-09-20T05:08:50.158Z,100.00
2022-09-20T05:10:10.120Z,100.00
2022-09-20T05:11:24.452Z,100.00
2022-09-20T05:12:25.762Z,100.00
2022-09-20T05:13:36.329Z,100.00
2022-09-20T05:14:37.665Z,99.66
2022-09-20T05:15:38.998Z,98.99
2022-09-20T05:16:42.050Z,99.40
2022-09-20T05:17:53.973Z,99.70
2022-09-20T05:19:01.043Z,100.00
2022-09-20T05:20:04.978Z,100.00
2022-09-20T05:21:24.829Z,100.00
2022-09-20T05:22:43.930Z,100.00
2022-09-20T05:23:51.261Z,100.00
2022-09-20T05:24:52.614Z,100.00
2022-09-20T05:25:56.943Z,100.00
2022-09-20T05:27:06.389Z,100.00
2022-09-20T05:28:23.566Z,100.00
2022-09-20T05:29:38.193Z,100.00
2022-09-20T05:31:18.297Z,100.00
2022-09-20T05:32:22.614Z,100.00
2022-09-20T05:33:32.148Z,100.00
2022-09-20T05:34:41.046Z,100.00
2022-09-20T05:36:02.652Z,100.00
2022-09-20T05:37:06.796Z,100.00
2022-09-20T05:38:16.311Z,100.00
2022-09-20T05:39:35.751Z,100.00
2022-09-20T05:41:00.123Z,100.00
2022-09-20T05:42:09.006Z,100.00
2022-09-20T05:43:11.792Z,100.00
2022-09-20T05:44:31.870Z,100.00
2022-09-20T05:45:45.404Z,100.00
2022-09-20T05:47:15.726Z,100.00
2022-09-20T05:48:27.393Z,100.00
2022-09-20T05:49:34.600Z,100.00
2022-09-20T05:50:42.719Z,100.00
2022-09-20T05:52:06.712Z,99.11
2022-09-20T05:53:08.009Z,99.52
2022-09-20T05:54:41.914Z,99.33
2022-09-20T05:55:52.449Z,99.08
2022-09-20T05:57:09.761Z,98.65
2022-09-20T05:58:13.846Z,98.59
2022-09-20T05:59:15.325Z,97.26
2022-09-20T06:00:19.569Z,97.67
2022-09-20T06:01:32.580Z,96.93
2022-09-20T06:02:48.788Z,97.22
2022-09-20T06:04:14.694Z,97.47
2022-09-20T06:05:29.400Z,97.71
2022-09-20T06:06:48.797Z,97.14
2022-09-20T06:08:07.965Z,97.42
2022-09-20T06:09:17.737Z,97.69
2022-09-20T06:10:33.217Z,96.91
2022-09-20T06:11:54.774Z,96.68
2022-09-20T06:13:01.595Z,96.81
2022-09-20T06:14:08.790Z,96.90
2022-09-20T06:15:13.061Z,97.17
2022-09-20T06:16:21.874Z,97.45
2022-09-20T06:17:28.479Z,97.41
2022-09-20T06:18:48.079Z,97.42
2022-09-20T06:20:15.268Z,97.62
2022-09-20T06:21:25.026Z,96.77
2022-09-20T06:22:36.630Z,96.58
2022-09-20T06:23:38.057Z,96.61
2022-09-20T06:24:44.921Z,96.57
2022-09-20T06:25:51.753Z,96.21
2022-09-20T06:26:55.207Z,95.90
2022-09-20T06:27:59.172Z,95.77
2022-09-20T06:29:03.293Z,95.69
2022-09-20T06:30:07.887Z,95.47
2022-09-20T06:31:10.346Z,94.94
2022-09-20T06:32:15.951Z,94.24
2022-09-20T06:33:17.222Z,93.96
2022-09-20T06:34:18.588Z,93.83
2022-09-20T06:35:21.107Z,93.12
2022-09-20T06:36:25.291Z,92.52
2022-09-20T06:37:39.318Z,92.72
2022-09-20T06:38:40.614Z,92.25
2022-09-20T06:40:00.679Z,91.36
2022-09-20T06:41:03.409Z,91.70
2022-09-20T06:42:04.866Z,91.10
2022-09-20T06:43:06.368Z,91.15
2022-09-20T06:44:07.740Z,91.09
2022-09-20T06:45:09.152Z,90.71
2022-09-20T06:46:10.508Z,91.19
2022-09-20T06:47:12.626Z,91.63
2022-09-20T06:48:14.463Z,92.00
2022-09-20T06:49:15.764Z,92.22
2022-09-20T06:50:18.045Z,91.67
2022-09-20T06:51:19.477Z,91.60
2022-09-20T06:52:21.685Z,90.64
2022-09-20T06:53:28.385Z,90.99
2022-09-20T06:54:29.821Z,91.07
2022-09-20T06:55:34.826Z,90.90
2022-09-20T06:56:36.147Z,90.82
2022-09-20T06:57:37.715Z,90.29
2022-09-20T06:58:39.056Z,89.90
2022-09-20T06:59:40.360Z,91.02
2022-09-20T07:00:41.726Z,90.16
2022-09-20T07:01:43.259Z,89.58
2022-09-20T07:02:44.621Z,90.35
2022-09-20T07:03:46.024Z,90.84
2022-09-20T07:04:47.334Z,90.47
2022-09-20T07:05:49.061Z,91.72
2022-09-20T07:06:50.423Z,91.56
2022-09-20T07:07:56.369Z,92.29
2022-09-20T07:08:57.721Z,90.81
2022-09-20T07:09:59.029Z,90.86
2022-09-20T07:11:04.504Z,90.77
2022-09-20T07:12:05.923Z,90.95
2022-09-20T07:13:07.208Z,90.47
2022-09-20T07:14:08.526Z,90.27
2022-09-20T07:15:10.023Z,90.60
2022-09-20T07:16:12.917Z,89.84
2022-09-20T07:17:14.284Z,89.87
2022-09-20T07:18:15.652Z,89.51
2022-09-20T07:19:17.013Z,88.66
2022-09-20T07:20:21.335Z,89.58
2022-09-20T07:21:23.014Z,89.26
2022-09-20T07:22:24.347Z,89.26
2022-09-20T07:23:26.249Z,89.00
2022-09-20T07:24:27.673Z,89.28
2022-09-20T07:25:29.953Z,89.20
2022-09-20T07:26:31.476Z,89.18
2022-09-20T07:27:32.838Z,88.80
2022-09-20T07:28:34.745Z,88.57
2022-09-20T07:29:36.074Z,88.48
2022-09-20T07:30:37.416Z,88.92
2022-09-20T07:31:38.781Z,89.09
2022-09-20T07:32:40.377Z,89.77
2022-09-20T07:33:41.694Z,89.80
2022-09-20T07:34:43.047Z,89.14
2022-09-20T07:35:44.372Z,88.86
2022-09-20T07:36:48.975Z,89.11
2022-09-20T07:37:55.690Z,88.87
2022-09-20T07:38:57.028Z,88.33
2022-09-20T07:39:58.405Z,87.61
2022-09-20T07:41:00.485Z,87.43
2022-09-20T07:42:01.904Z,87.38
2022-09-20T07:43:03.253Z,87.39
2022-09-20T07:44:04.590Z,87.94
2022-09-20T07:45:06.327Z,88.54
2022-09-20T07:46:07.664Z,89.42
2022-09-20T07:47:09.520Z,90.26
2022-09-20T07:48:10.843Z,89.04
2022-09-20T07:49:12.145Z,87.50
2022-09-20T07:50:13.425Z,87.23
2022-09-20T07:51:14.750Z,86.82
2022-09-20T07:52:16.100Z,87.45
2022-09-20T07:53:17.425Z,87.96
2022-09-20T07:54:18.930Z,88.24
2022-09-20T07:55:20.278Z,87.99
2022-09-20T07:56:21.589Z,87.33
2022-09-20T07:57:23.173Z,86.83
2022-09-20T07:58:24.562Z,85.24
2022-09-20T07:59:25.894Z,85.21
2022-09-20T08:00:27.203Z,84.73
2022-09-20T08:01:28.602Z,85.08
2022-09-20T08:02:29.954Z,85.20
2022-09-20T08:03:32.447Z,82.82
2022-09-20T08:04:33.787Z,82.63
2022-09-20T08:05:35.109Z,82.62
2022-09-20T08:06:37.413Z,81.86
2022-09-20T08:07:38.702Z,81.12
2022-09-20T08:08:40.521Z,81.59
2022-09-20T08:09:41.800Z,81.89
2022-09-20T08:10:44.649Z,82.14
2022-09-20T08:11:46.161Z,82.28
2022-09-20T08:14:12.149Z,81.77
2022-09-20T08:15:13.513Z,82.57
2022-09-20T08:16:15.051Z,83.46
2022-09-20T08:17:16.448Z,79.51
2022-09-20T08:18:17.757Z,77.87
2022-09-20T08:19:22.286Z,79.21
2022-09-20T08:20:23.603Z,78.10
2022-09-20T08:21:25.741Z,78.84
2022-09-20T08:22:27.055Z,79.38
2022-09-20T08:23:28.778Z,78.28
2022-09-20T08:24:30.364Z,76.91
2022-09-20T08:25:31.864Z,76.73
2022-09-20T08:26:33.161Z,75.17
2022-09-20T08:27:34.489Z,75.28
2022-09-20T08:28:35.807Z,74.35
2022-09-20T08:29:37.090Z,74.41
2022-09-20T08:30:38.425Z,74.19
2022-09-20T08:31:40.085Z,74.21
2022-09-20T08:32:41.381Z,74.05
2022-09-20T08:33:43.050Z,73.77
2022-09-20T08:34:49.242Z,73.47
2022-09-20T08:35:50.886Z,74.43
2022-09-20T08:36:52.253Z,75.23
2022-09-20T08:37:55.207Z,72.78
2022-09-20T08:40:18.385Z,73.21
2022-09-20T08:41:23.683Z,72.45
2022-09-20T08:42:24.967Z,72.70
2022-09-20T08:43:28.024Z,71.63
2022-09-20T08:44:35.175Z,71.06
2022-09-20T08:45:38.422Z,69.46
2022-09-20T08:46:42.130Z,68.35
2022-09-20T08:47:58.977Z,68.13
2022-09-20T08:49:00.507Z,69.34
2022-09-20T08:50:11.773Z,69.64
2022-09-20T08:51:15.022Z,69.75
2022-09-20T08:52:37.435Z,68.87
2022-09-20T08:53:41.349Z,67.34
2022-09-20T08:54:42.808Z,67.30
2022-09-20T08:55:44.380Z,68.32
2022-09-20T08:56:45.757Z,68.23
2022-09-20T08:57:49.313Z,68.84
2022-09-20T08:58:50.722Z,67.49
2022-09-20T08:59:52.087Z,66.94
2022-09-20T09:00:54.378Z,67.19
2022-09-20T09:01:55.758Z,66.83
2022-09-20T09:02:58.264Z,65.34
2022-09-20T09:04:11.425Z,66.24
2022-09-20T09:05:31.134Z,65.16
2022-09-20T09:06:33.049Z,66.30
2022-09-20T09:07:34.348Z,66.05
2022-09-20T09:08:38.268Z,66.33
2022-09-20T09:09:41.762Z,66.52
2022-09-20T09:10:45.479Z,65.84
2022-09-20T09:11:47.014Z,64.98
2022-09-20T09:12:49.068Z,66.29
2022-09-20T09:13:53.345Z,65.09
2022-09-20T09:14:58.604Z,65.01
2022-09-20T09:16:12.198Z,65.01
2022-09-20T09:17:15.407Z,64.39
2022-09-20T09:18:16.736Z,63.87
2022-09-20T09:19:34.524Z,63.88
2022-09-20T09:20:42.178Z,64.50
2022-09-20T09:21:43.524Z,61.51
2022-09-20T09:22:45.636Z,62.83
2022-09-20T09:23:50.935Z,61.81
2022-09-20T09:25:10.998Z,61.52
2022-09-20T09:26:14.995Z,61.96
2022-09-20T09:27:17.618Z,62.90
2022-09-20T09:28:22.337Z,61.40
2022-09-20T09:29:23.714Z,60.74
2022-09-20T09:30:27.460Z,61.76
2022-09-20T09:31:29.074Z,61.89
2022-09-20T09:32:31.346Z,62.32
2022-09-20T09:33:34.116Z,61.78
2022-09-20T09:34:35.437Z,63.20
2022-09-20T09:35:36.836Z,64.16
2022-09-20T09:36:43.880Z,64.40
2022-09-20T09:37:53.325Z,63.29
2022-09-20T09:39:14.331Z,63.81
2022-09-20T09:40:17.601Z,62.09
2022-09-20T09:41:23.361Z,61.54
2022-09-20T09:42:25.497Z,62.46
2022-09-20T09:43:28.444Z,61.78
2022-09-20T09:44:30.880Z,61.59
2022-09-20T09:45:32.263Z,61.92
2022-09-20T09:46:34.408Z,62.85
2022-09-20T09:47:36.947Z,63.58
2022-09-20T09:48:40.218Z,62.38
2022-09-20T09:49:59.863Z,62.66
2022-09-20T09:51:09.123Z,61.14
2022-09-20T09:52:10.424Z,62.85
2022-09-20T09:53:16.530Z,61.31
2022-09-20T09:54:18.141Z,61.65
2022-09-20T09:55:19.481Z,59.93
2022-09-20T09:56:26.692Z,58.50
2022-09-20T09:57:50.838Z,59.84
2022-09-20T09:59:04.093Z,59.41
2022-09-20T10:00:16.722Z,59.40
2022-09-20T10:01:30.038Z,59.76
2022-09-20T10:02:53.036Z,61.09
2022-09-20T10:04:02.241Z,59.39
2022-09-20T10:05:03.533Z,59.59
2022-09-20T10:06:07.834Z,59.93
2022-09-20T10:07:14.282Z,59.92
2022-09-20T10:08:15.588Z,58.89
2022-09-20T10:09:19.940Z,57.78
2022-09-20T10:10:21.245Z,59.23
2022-09-20T10:11:34.541Z,60.37
2022-09-20T10:12:35.828Z,58.40
2022-09-20T10:13:55.897Z,59.81
2022-09-20T10:15:16.025Z,59.81
2022-09-20T10:16:26.286Z,59.51
2022-09-20T10:18:03.172Z,57.92
2022-09-20T10:19:04.571Z,59.53
2022-09-20T10:20:05.924Z,59.22
2022-09-20T10:21:07.269Z,59.02
2022-09-20T10:22:14.271Z,58.54
2022-09-20T10:24:01.346Z,58.23
2022-09-20T10:25:03.553Z,57.63
2022-09-20T10:26:23.649Z,57.15
2022-09-20T10:27:33.620Z,57.33
2022-09-20T10:28:37.761Z,57.99
2022-09-20T10:29:51.472Z,56.19
2022-09-20T10:30:55.844Z,56.73
2022-09-20T10:32:03.131Z,56.13
2022-09-20T10:33:27.572Z,55.07
2022-09-20T10:34:47.092Z,53.41
2022-09-20T10:36:05.088Z,53.76
2022-09-20T10:37:12.011Z,54.83
2022-09-20T10:38:26.139Z,55.14
2022-09-20T10:39:34.601Z,54.96
2022-09-20T10:40:36.027Z,54.90
2022-09-20T10:41:37.441Z,53.76
2022-09-20T10:42:46.032Z,53.65
2022-09-20T10:43:59.276Z,54.04
2022-09-20T10:45:09.372Z,54.41
2022-09-20T10:46:34.300Z,53.44
2022-09-20T10:47:45.209Z,53.84
2022-09-20T10:48:48.221Z,53.09
2022-09-20T10:49:52.555Z,54.46
2022-09-20T10:51:04.265Z,55.67
2022-09-20T10:52:17.553Z,55.91
2022-09-20T10:53:31.213Z,57.54
2022-09-20T10:54:44.701Z,57.43
2022-09-20T10:56:01.329Z,57.13
2022-09-20T10:57:28.403Z,56.60
2022-09-20T10:58:49.756Z,54.30
2022-09-20T11:00:00.076Z,53.20
2022-09-20T11:01:23.200Z,52.20
2022-09-20T11:02:27.822Z,53.24
2022-09-20T11:03:47.727Z,54.14
2022-09-20T11:04:55.572Z,52.82
2022-09-20T11:05:59.888Z,54.09
2022-09-20T11:07:15.201Z,54.72
2022-09-20T11:08:19.136Z,54.08
2022-09-20T11:09:23.346Z,53.00
2022-09-20T11:10:27.744Z,52.95
2022-09-20T11:11:34.211Z,53.31
2022-09-20T11:12:44.488Z,54.24
2022-09-20T11:14:06.117Z,53.38
2022-09-20T11:15:26.054Z,52.75
2022-09-20T11:16:29.227Z,53.28
2022-09-20T11:17:34.847Z,53.64
2022-09-20T11:18:39.449Z,54.58
2022-09-20T11:19:50.513Z,55.72
2022-09-20T11:20:56.593Z,56.00
2022-09-20T11:22:03.267Z,54.07
2022-09-20T11:23:24.822Z,53.84
2022-09-20T11:24:30.301Z,53.67
2022-09-20T11:25:47.172Z,54.96
2022-09-20T11:26:53.605Z,54.59
2022-09-20T11:28:13.929Z,53.33
2022-09-20T11:29:26.604Z,55.00
2022-09-20T11:30:28.843Z,54.19
2022-09-20T11:31:33.299Z,55.17
2022-09-20T11:33:03.909Z,55.70
2022-09-20T11:34:20.061Z,56.42
2022-09-20T11:35:21.413Z,56.58
2022-09-20T11:36:26.728Z,56.21
2022-09-20T11:37:32.914Z,56.75
2022-09-20T11:38:46.101Z,58.08
2022-09-20T11:39:51.246Z,57.34
2022-09-20T11:40:58.540Z,57.94
2022-09-20T11:42:01.261Z,55.05
2022-09-20T11:43:04.731Z,54.65
2022-09-20T11:44:07.930Z,53.99
2022-09-20T11:45:12.023Z,52.85
2022-09-20T11:46:18.505Z,53.27
2022-09-20T11:47:50.086Z,53.39
2022-09-20T11:48:48.013Z,54.36
2022-09-20T11:49:58.391Z,54.09
2022-09-20T11:51:18.635Z,53.60
2022-09-20T11:52:38.418Z,54.70
2022-09-20T11:53:42.694Z,55.85
2022-09-20T11:54:43.971Z,56.07
2022-09-20T11:55:59.738Z,55.49
2022-09-20T11:57:01.348Z,55.35
2022-09-20T11:58:04.896Z,54.98
2022-09-20T11:59:17.416Z,54.45
2022-09-20T12:00:28.379Z,55.11
2022-09-20T12:01:35.252Z,55.43
2022-09-20T12:02:43.003Z,54.63
2022-09-20T12:03:50.385Z,54.33
2022-09-20T12:04:52.293Z,54.45
2022-09-20T12:06:01.149Z,54.37
2022-09-20T12:07:17.805Z,52.44
2022-09-20T12:08:25.702Z,52.59
2022-09-20T12:09:34.993Z,54.08
2022-09-20T12:10:37.315Z,55.45
2022-09-20T12:11:38.973Z,55.36
2022-09-20T12:12:48.723Z,54.95
2022-09-20T12:13:56.339Z,54.17
2022-09-20T12:14:59.799Z,53.30
2022-09-20T12:16:13.688Z,52.74
2022-09-20T12:17:34.829Z,53.83
2022-09-20T12:18:45.661Z,51.94
2022-09-20T12:19:47.002Z,52.15
2022-09-20T12:20:58.929Z,50.54
2022-09-20T12:22:00.224Z,50.58
2022-09-20T12:23:20.055Z,48.03
2022-09-20T12:24:21.523Z,47.75
2022-09-20T12:25:36.876Z,49.09
2022-09-20T12:26:39.632Z,48.11
2022-09-20T12:27:41.103Z,50.27
2022-09-20T12:28:43.575Z,50.58
2022-09-20T12:29:47.698Z,50.45
2022-09-20T12:31:08.988Z,50.40
2022-09-20T12:32:28.862Z,49.84
2022-09-20T12:33:50.199Z,48.97
2022-09-20T12:34:51.645Z,50.97
2022-09-20T12:35:57.267Z,47.96
2022-09-20T12:36:58.637Z,47.94
2022-09-20T12:38:16.568Z,49.50
2022-09-20T12:39:24.196Z,49.13
2022-09-20T12:40:27.742Z,48.06
2022-09-20T12:41:43.875Z,47.57
2022-09-20T12:42:54.532Z,47.90
2022-09-20T12:44:03.977Z,49.01
2022-09-20T12:45:15.460Z,48.61
2022-09-20T12:46:20.839Z,49.70
2022-09-20T12:47:28.176Z,49.26
2022-09-20T12:48:34.346Z,48.35
2022-09-20T12:49:41.533Z,48.36
2022-09-20T12:50:43.090Z,50.33
2022-09-20T12:51:50.810Z,50.91
2022-09-20T12:52:53.822Z,51.98
2022-09-20T12:53:59.795Z,52.79
2022-09-20T12:55:04.689Z,52.57
2022-09-20T12:56:15.436Z,52.53
2022-09-20T12:57:17.878Z,52.86
2022-09-20T12:58:23.906Z,53.28
2022-09-20T12:59:26.657Z,53.48
2022-09-20T13:00:33.315Z,53.99
2022-09-20T13:01:36.722Z,55.17
2022-09-20T13:02:41.946Z,54.91
2022-09-20T13:03:47.469Z,54.77
2022-09-20T13:04:55.738Z,54.32
2022-09-20T13:06:06.010Z,53.19
2022-09-20T13:07:29.839Z,54.11
2022-09-20T13:08:32.318Z,54.20
2022-09-20T13:09:34.537Z,54.09
2022-09-20T13:10:37.938Z,53.84
2022-09-20T13:11:50.880Z,53.96
2022-09-20T13:12:54.725Z,52.81
2022-09-20T13:14:08.125Z,52.08
2022-09-20T13:15:16.601Z,52.32
2022-09-20T13:16:23.867Z,53.07
2022-09-20T13:17:26.826Z,53.50
2022-09-20T13:18:28.861Z,52.39
2022-09-20T13:19:35.239Z,52.89
2022-09-20T13:20:36.644Z,51.04
2022-09-20T13:21:40.153Z,51.03
2022-09-20T13:22:41.491Z,51.15
2022-09-20T13:23:49.175Z,51.54
2022-09-20T13:24:52.055Z,51.35
2022-09-20T13:25:55.262Z,51.17
2022-09-20T13:27:01.349Z,51.51
2022-09-20T13:28:07.560Z,51.60
2022-09-20T13:29:09.409Z,52.52
2022-09-20T13:30:16.686Z,52.78
2022-09-20T13:31:21.233Z,53.21
2022-09-20T13:32:25.377Z,53.61
2022-09-20T13:33:26.731Z,53.31
2022-09-20T13:34:28.057Z,52.68
2022-09-20T13:35:29.396Z,52.88
2022-09-20T13:36:30.777Z,51.85
2022-09-20T13:37:32.457Z,52.48
2022-09-20T13:38:33.869Z,51.85
2022-09-20T13:39:36.654Z,52.98
2022-09-20T13:40:42.250Z,52.98
2022-09-20T13:41:43.661Z,51.96
2022-09-20T13:42:45.618Z,51.81
2022-09-20T13:43:51.473Z,52.72
2022-09-20T13:44:52.987Z,52.75
2022-09-20T13:45:58.853Z,53.52
2022-09-20T13:47:00.749Z,54.45
2022-09-20T13:48:02.094Z,53.57
2022-09-20T13:49:12.777Z,53.69
2022-09-20T13:50:27.401Z,53.26
2022-09-20T13:51:28.912Z,54.38
2022-09-20T13:52:31.417Z,55.01
2022-09-20T13:53:41.626Z,54.69
2022-09-20T13:54:43.490Z,54.04
2022-09-20T13:55:45.309Z,55.32
2022-09-20T13:56:47.077Z,55.91
2022-09-20T13:57:48.561Z,56.61
2022-09-20T13:58:50.880Z,57.76
2022-09-20T13:59:52.599Z,58.17
2022-09-20T14:00:55.440Z,58.56
2022-09-20T14:01:57.476Z,59.20
2022-09-20T14:02:58.951Z,59.44
2022-09-20T14:04:05.574Z,59.66
2022-09-20T14:05:07.429Z,59.20
2022-09-20T14:06:12.135Z,59.21
2022-09-20T14:07:14.477Z,59.06
2022-09-20T14:08:21.067Z,60.10
2022-09-20T14:09:28.181Z,60.55
2022-09-20T14:10:34.547Z,60.53
2022-09-20T14:11:36.909Z,60.88
2022-09-20T14:12:38.350Z,60.73
2022-09-20T14:13:41.467Z,61.09
2022-09-20T14:14:43.817Z,60.13
2022-09-20T14:15:46.542Z,58.42
2022-09-20T14:16:48.114Z,57.78
2022-09-20T14:17:49.986Z,57.76
2022-09-20T14:18:51.486Z,58.32
2022-09-20T14:19:54.221Z,58.62
2022-09-20T14:20:55.645Z,57.70
2022-09-20T14:21:58.524Z,58.33
2022-09-20T14:23:00.260Z,58.52
2022-09-20T14:24:22.497Z,57.42
2022-09-20T14:25:24.929Z,57.24
2022-09-20T14:26:28.969Z,57.04
2022-09-20T14:27:30.416Z,56.81
2022-09-20T14:28:31.831Z,57.71
2022-09-20T14:30:02.563Z,56.62
2022-09-20T14:31:07.597Z,56.88
2022-09-20T14:32:21.758Z,56.28
2022-09-20T14:33:23.263Z,55.98